PILOTS ONLINE: 586    ATC ONLINE: 114

MDPC - Punta Cana International Airport

Location

IATA PUJ
City Punta Cana
Country  Dominican Republic
Latitude 18° 34' 2" N
Longitude 68° 21' 48" W
Elevation 47 ft
Type Large Airport

Runways

09/27 10171 ft / 157 ft

Weather

METAR
2014/07/28 20:00
MDPC 282000Z 11008KT 9999 FEW025 31/24 Q1017 DU/ALL QDS
TAF
2014/07/28 18:12
TAF MDPC 281600Z 2818/2918 11010KT 9999 FEW025 PROB30 2821/2903 8000 VSSH FEW018 SCT080 
      BECMG 2902/2904 00000KT

Outbound flights

Inbound flights